createdAt,value
2023-05-19T00:01:15.278Z,3.34
2023-05-19T00:03:52.779Z,3.30
2023-05-19T00:06:25.361Z,2.89
2023-05-19T00:08:58.774Z,3.11
2023-05-19T00:11:29.150Z,3.08
2023-05-19T00:13:57.650Z,3.13
2023-05-19T00:16:27.204Z,2.91
2023-05-19T00:18:57.187Z,2.83
2023-05-19T00:21:25.339Z,3.00
2023-05-19T00:23:53.531Z,2.53
2023-05-19T00:26:22.765Z,2.78
2023-05-19T00:28:52.379Z,2.70
2023-05-19T00:31:20.743Z,2.76
2023-05-19T00:33:48.767Z,2.77
2023-05-19T00:36:16.736Z,2.70
2023-05-19T00:38:44.924Z,2.43
2023-05-19T00:41:13.089Z,2.77
2023-05-19T00:43:41.215Z,2.89
2023-05-19T00:46:11.080Z,2.85
2023-05-19T00:48:39.486Z,2.92
2023-05-19T00:51:08.152Z,2.60
2023-05-19T00:53:36.579Z,2.19
2023-05-19T00:56:05.120Z,2.48
2023-05-19T00:58:34.467Z,2.43
2023-05-19T01:01:04.231Z,2.48
2023-05-19T01:03:36.250Z,2.29
2023-05-19T01:06:06.041Z,2.15
2023-05-19T01:08:34.699Z,2.27
2023-05-19T01:11:02.865Z,2.24
2023-05-19T01:13:31.589Z,2.14
2023-05-19T01:16:04.094Z,2.18
2023-05-19T01:18:42.007Z,2.19
2023-05-19T01:21:38.622Z,2.11
2023-05-19T01:24:24.253Z,1.87
2023-05-19T01:27:25.242Z,1.90
2023-05-19T01:30:26.755Z,1.85
2023-05-19T01:33:04.322Z,1.64
2023-05-19T01:35:33.883Z,2.11
2023-05-19T01:38:02.766Z,1.98
2023-05-19T01:40:32.403Z,1.93
2023-05-19T01:43:03.042Z,1.89
2023-05-19T01:45:31.640Z,1.87
2023-05-19T01:48:02.955Z,2.02
2023-05-19T01:50:31.990Z,2.11
2023-05-19T01:53:00.770Z,1.85
2023-05-19T01:55:31.518Z,1.84
2023-05-19T01:58:11.600Z,1.80
2023-05-19T02:00:52.674Z,1.82
2023-05-19T02:03:32.596Z,1.64
2023-05-19T02:06:11.806Z,1.88
2023-05-19T02:08:45.349Z,1.59
2023-05-19T02:11:19.912Z,1.59
2023-05-19T02:13:51.260Z,1.63
2023-05-19T02:16:21.004Z,1.63
2023-05-19T02:18:53.929Z,1.59
2023-05-19T02:21:22.054Z,1.49
2023-05-19T02:23:50.337Z,1.18
2023-05-19T02:26:18.360Z,1.51
2023-05-19T02:28:46.363Z,1.34
2023-05-19T02:31:14.425Z,1.58
2023-05-19T02:33:43.102Z,1.82
2023-05-19T02:36:14.544Z,1.98
2023-05-19T02:38:42.784Z,1.72
2023-05-19T02:41:10.800Z,1.66
2023-05-19T02:43:38.766Z,1.84
2023-05-19T02:46:06.947Z,1.84
2023-05-19T02:48:35.064Z,1.72
2023-05-19T02:51:03.183Z,2.03
2023-05-19T02:53:33.470Z,2.16
2023-05-19T02:56:01.557Z,1.90
2023-05-19T02:58:32.002Z,2.25
2023-05-19T03:00:59.788Z,2.33
2023-05-19T03:03:28.872Z,2.49
2023-05-19T03:05:56.975Z,2.79
2023-05-19T03:08:25.036Z,2.81
2023-05-19T03:10:54.551Z,2.92
2023-05-19T03:13:22.573Z,2.91
2023-05-19T03:15:53.297Z,2.77
2023-05-19T03:18:21.476Z,2.94
2023-05-19T03:20:49.472Z,3.15
2023-05-19T03:23:19.040Z,3.26
2023-05-19T03:25:47.157Z,3.21
2023-05-19T03:28:17.247Z,3.26
2023-05-19T03:30:45.317Z,3.30
2023-05-19T03:33:13.500Z,3.44
2023-05-19T03:35:41.482Z,3.65
2023-05-19T03:38:09.494Z,3.62
2023-05-19T03:40:37.520Z,3.81
2023-05-19T03:43:05.604Z,3.86
2023-05-19T03:45:35.016Z,4.01
2023-05-19T03:48:03.780Z,4.09
2023-05-19T03:50:32.221Z,4.29
2023-05-19T03:53:00.567Z,4.38
2023-05-19T03:55:30.002Z,4.38
2023-05-19T03:57:58.133Z,4.84
2023-05-19T04:00:28.790Z,4.95
2023-05-19T04:02:58.520Z,5.15
2023-05-19T04:05:26.756Z,5.31
2023-05-19T04:07:54.774Z,5.42
2023-05-19T04:10:23.237Z,5.68
2023-05-19T04:12:51.341Z,5.69
2023-05-19T04:15:19.404Z,6.40
2023-05-19T04:17:47.529Z,6.74
2023-05-19T04:20:17.154Z,6.96
2023-05-19T04:22:45.207Z,7.27
2023-05-19T04:25:13.298Z,7.59
2023-05-19T04:27:41.309Z,7.63
2023-05-19T04:30:10.704Z,7.89
2023-05-19T04:32:39.710Z,8.13
2023-05-19T04:35:08.235Z,8.26
2023-05-19T04:37:38.551Z,8.50
2023-05-19T04:40:11.021Z,8.68
2023-05-19T04:42:41.520Z,8.74
2023-05-19T04:45:10.022Z,8.89
2023-05-19T04:47:38.263Z,9.09
2023-05-19T04:50:07.341Z,9.13
2023-05-19T04:52:35.453Z,9.44
2023-05-19T04:55:05.349Z,9.53
2023-05-19T04:57:33.332Z,9.56
2023-05-19T05:00:01.299Z,9.87
2023-05-19T05:02:29.587Z,9.93
2023-05-19T05:04:58.100Z,9.99
2023-05-19T05:07:26.260Z,10.04
2023-05-19T05:09:54.511Z,10.38
2023-05-19T05:12:24.666Z,10.52
2023-05-19T05:14:53.134Z,10.74
2023-05-19T05:17:21.639Z,11.70
2023-05-19T05:19:50.141Z,12.84
2023-05-19T05:22:18.747Z,13.87
2023-05-19T05:24:47.548Z,14.43
2023-05-19T05:27:15.523Z,14.91
2023-05-19T05:29:44.954Z,15.29
2023-05-19T05:32:13.124Z,15.26
2023-05-19T05:34:42.036Z,14.87
2023-05-19T05:37:10.109Z,14.75
2023-05-19T05:39:38.393Z,14.49
2023-05-19T05:42:09.153Z,14.81
2023-05-19T05:44:37.228Z,14.55
2023-05-19T05:47:07.886Z,14.32
2023-05-19T05:49:40.706Z,14.21
2023-05-19T05:52:11.371Z,14.07
2023-05-19T05:54:39.852Z,14.15
2023-05-19T05:57:08.883Z,14.18
2023-05-19T05:59:37.302Z,14.21
2023-05-19T06:02:06.985Z,14.46
2023-05-19T06:04:38.221Z,14.38
2023-05-19T06:07:06.409Z,14.48
2023-05-19T06:09:34.426Z,14.65
2023-05-19T06:12:02.680Z,14.29
2023-05-19T06:14:30.743Z,14.35
2023-05-19T06:16:58.797Z,14.82
2023-05-19T06:19:28.428Z,15.02
2023-05-19T06:21:56.640Z,14.92
2023-05-19T06:24:27.190Z,14.66
2023-05-19T06:26:55.159Z,14.84
2023-05-19T06:29:23.179Z,15.15
2023-05-19T06:31:52.552Z,15.10
2023-05-19T06:34:21.126Z,15.21
2023-05-19T06:36:50.520Z,15.31
2023-05-19T06:39:18.626Z,15.39
2023-05-19T06:41:46.642Z,15.01
2023-05-19T06:44:14.913Z,15.35
2023-05-19T06:46:44.408Z,15.30
2023-05-19T06:49:12.456Z,15.43
2023-05-19T06:51:40.488Z,15.45
2023-05-19T06:54:11.111Z,15.49
2023-05-19T06:56:39.156Z,15.93
2023-05-19T06:59:07.302Z,16.19
2023-05-19T07:01:38.073Z,16.47
2023-05-19T07:04:06.448Z,16.81
2023-05-19T07:06:34.687Z,16.82
2023-05-19T07:09:05.212Z,16.86
2023-05-19T07:11:34.947Z,16.45
2023-05-19T07:14:03.260Z,16.70
2023-05-19T07:16:31.267Z,16.64
2023-05-19T07:19:01.500Z,16.49
2023-05-19T07:21:29.579Z,16.60
2023-05-19T07:23:57.608Z,16.92
2023-05-19T07:26:26.427Z,17.36
2023-05-19T07:28:56.003Z,17.57
2023-05-19T07:31:23.955Z,17.13
2023-05-19T07:33:56.396Z,16.67
2023-05-19T07:36:24.571Z,16.38
2023-05-19T07:38:52.694Z,16.52
2023-05-19T07:41:21.635Z,16.51
2023-05-19T07:43:49.726Z,15.97
2023-05-19T07:46:19.192Z,16.69
2023-05-19T07:48:47.184Z,17.00
2023-05-19T07:51:16.192Z,17.13
2023-05-19T07:53:44.185Z,17.30
2023-05-19T07:56:12.216Z,17.67
2023-05-19T07:58:40.348Z,17.63
2023-05-19T08:01:08.469Z,18.04
2023-05-19T08:04:05.168Z,17.51
2023-05-19T08:06:33.456Z,17.27
2023-05-19T08:09:05.522Z,17.04
2023-05-19T08:11:33.475Z,17.23
2023-05-19T08:14:01.547Z,17.37
2023-05-19T08:16:29.536Z,17.64
2023-05-19T08:19:02.560Z,18.01
2023-05-19T08:21:31.341Z,18.29
2023-05-19T08:23:59.351Z,18.18
2023-05-19T08:26:27.426Z,18.00
2023-05-19T08:28:55.512Z,17.86
2023-05-19T08:31:25.056Z,17.92
2023-05-19T08:33:53.330Z,18.48
2023-05-19T08:36:22.961Z,18.71
2023-05-19T08:38:50.976Z,18.66
2023-05-19T08:41:19.114Z,18.16
2023-05-19T08:43:48.351Z,18.36
2023-05-19T08:46:17.575Z,18.33
2023-05-19T08:48:52.515Z,17.60
2023-05-19T08:51:35.026Z,18.16
2023-05-19T08:54:12.739Z,18.04
2023-05-19T08:56:41.549Z,17.88
2023-05-19T08:59:15.304Z,18.08
2023-05-19T09:01:45.822Z,18.37
2023-05-19T09:04:14.661Z,18.44
2023-05-19T09:06:45.735Z,18.84
2023-05-19T09:09:13.896Z,18.69
2023-05-19T09:11:41.970Z,18.17
2023-05-19T09:14:10.056Z,18.56
2023-05-19T09:16:38.259Z,18.97
2023-05-19T09:19:08.692Z,18.33
2023-05-19T09:21:37.374Z,18.46
2023-05-19T09:24:08.086Z,18.31
2023-05-19T09:26:39.957Z,17.88
2023-05-19T09:29:14.678Z,18.39
2023-05-19T09:31:50.403Z,18.04
2023-05-19T09:34:18.763Z,18.27
2023-05-19T09:36:49.522Z,17.90
2023-05-19T09:39:20.183Z,18.12
2023-05-19T09:41:48.834Z,18.24
2023-05-19T09:44:24.237Z,17.77
2023-05-19T09:46:53.451Z,17.62
2023-05-19T09:49:22.897Z,17.97
2023-05-19T09:51:52.916Z,18.61
2023-05-19T09:54:23.722Z,18.18
2023-05-19T09:57:00.005Z,19.04
2023-05-19T09:59:32.124Z,19.10
2023-05-19T10:02:02.430Z,18.96
2023-05-19T10:04:31.635Z,18.57
2023-05-19T10:07:00.643Z,18.55
2023-05-19T10:09:31.152Z,18.44
2023-05-19T10:12:00.318Z,17.81
2023-05-19T10:14:29.572Z,18.41
2023-05-19T10:16:58.917Z,18.57
2023-05-19T10:19:28.460Z,18.58
2023-05-19T10:21:57.387Z,19.61
2023-05-19T10:24:25.559Z,20.08
2023-05-19T10:26:59.786Z,19.10
2023-05-19T10:29:31.384Z,18.79
2023-05-19T10:32:09.386Z,19.32
2023-05-19T10:35:08.869Z,19.49
2023-05-19T10:37:46.305Z,19.34
2023-05-19T10:40:23.134Z,20.00
2023-05-19T10:43:04.132Z,20.34
2023-05-19T10:45:37.390Z,19.52
2023-05-19T10:48:05.866Z,19.94
2023-05-19T10:50:38.137Z,19.96
2023-05-19T10:53:06.148Z,20.12
2023-05-19T10:55:48.666Z,19.71
2023-05-19T10:58:41.638Z,20.08
2023-05-19T11:01:11.082Z,19.38
2023-05-19T11:03:52.458Z,19.30
2023-05-19T11:06:27.653Z,18.94
2023-05-19T11:08:58.841Z,20.04
2023-05-19T11:11:46.076Z,20.12
2023-05-19T11:14:16.714Z,20.37
2023-05-19T11:16:48.409Z,20.77
2023-05-19T11:19:21.494Z,20.13
2023-05-19T11:21:52.402Z,19.70
2023-05-19T11:24:37.169Z,19.49
2023-05-19T11:27:27.086Z,19.51
2023-05-19T11:29:59.371Z,19.07
2023-05-19T11:32:30.988Z,18.49
2023-05-19T11:34:59.440Z,18.31
2023-05-19T11:37:28.749Z,19.17
2023-05-19T11:39:56.893Z,19.23
2023-05-19T11:42:25.117Z,19.53
2023-05-19T11:44:57.880Z,19.61
2023-05-19T11:47:25.958Z,19.55
2023-05-19T11:49:55.220Z,18.66
2023-05-19T11:52:24.176Z,19.37
2023-05-19T11:54:52.653Z,19.80
2023-05-19T11:57:21.060Z,19.55
2023-05-19T11:59:53.706Z,19.66
2023-05-19T12:02:25.156Z,19.52
2023-05-19T12:04:53.932Z,19.82
2023-05-19T12:07:24.307Z,20.02
2023-05-19T12:09:53.681Z,20.05
2023-05-19T12:12:22.510Z,20.27
2023-05-19T12:14:53.067Z,20.02
2023-05-19T12:17:24.086Z,20.27
2023-05-19T12:19:52.981Z,20.40
2023-05-19T12:22:21.384Z,20.16
2023-05-19T12:24:50.477Z,19.89
2023-05-19T12:27:20.607Z,20.32
2023-05-19T12:29:51.782Z,20.17
2023-05-19T12:32:20.268Z,19.75
2023-05-19T12:34:49.639Z,20.00
2023-05-19T12:37:17.826Z,20.24
2023-05-19T12:39:46.048Z,19.93
2023-05-19T12:42:14.041Z,19.59
2023-05-19T12:44:46.897Z,19.65
2023-05-19T12:47:19.766Z,19.32
2023-05-19T12:50:02.754Z,19.06
2023-05-19T12:52:32.654Z,19.53
2023-05-19T12:55:05.055Z,19.86
2023-05-19T12:57:36.101Z,19.87
2023-05-19T13:00:07.030Z,19.53
2023-05-19T13:02:36.811Z,19.53
2023-05-19T13:05:09.240Z,19.93
2023-05-19T13:07:37.436Z,20.08
2023-05-19T13:10:06.677Z,19.78
2023-05-19T13:12:34.698Z,19.86
2023-05-19T13:15:02.635Z,20.18
2023-05-19T13:17:30.684Z,20.21
2023-05-19T13:19:59.215Z,19.18
2023-05-19T13:22:28.673Z,18.61
2023-05-19T13:24:58.973Z,18.41
2023-05-19T13:27:27.269Z,18.99
2023-05-19T13:29:55.268Z,19.43
2023-05-19T13:32:23.441Z,19.63
2023-05-19T13:34:51.528Z,19.90
2023-05-19T13:37:19.607Z,20.02
2023-05-19T13:39:48.971Z,19.82
2023-05-19T13:42:17.545Z,19.80
2023-05-19T13:44:46.113Z,19.44
2023-05-19T13:47:14.553Z,19.06
2023-05-19T13:49:42.800Z,19.52
2023-05-19T13:52:11.633Z,19.47
2023-05-19T13:54:39.737Z,19.43
2023-05-19T13:57:09.208Z,19.44
2023-05-19T13:59:43.114Z,19.21
2023-05-19T14:02:21.293Z,19.64
2023-05-19T14:04:49.189Z,19.72
2023-05-19T14:07:17.665Z,19.68
2023-05-19T14:09:46.317Z,19.84
2023-05-19T14:12:15.798Z,19.44
2023-05-19T14:14:43.863Z,19.15
2023-05-19T14:17:12.191Z,19.52
2023-05-19T14:19:40.913Z,19.56
2023-05-19T14:22:09.035Z,19.24
2023-05-19T14:24:37.265Z,18.67
2023-05-19T14:27:05.534Z,18.75
2023-05-19T14:29:35.471Z,19.14
2023-05-19T14:32:04.183Z,18.89
2023-05-19T14:34:32.124Z,18.62
2023-05-19T14:37:00.153Z,18.92
2023-05-19T14:39:28.211Z,19.07
2023-05-19T14:41:56.630Z,19.07
2023-05-19T14:44:24.608Z,19.42
2023-05-19T14:46:54.084Z,19.31
2023-05-19T14:49:22.054Z,19.14
2023-05-19T14:51:50.005Z,19.01
2023-05-19T14:54:18.114Z,19.11
2023-05-19T14:56:46.241Z,19.17
2023-05-19T14:59:14.173Z,19.18
2023-05-19T15:01:42.533Z,19.11
2023-05-19T15:04:14.909Z,19.08
2023-05-19T15:06:43.325Z,19.12
2023-05-19T15:09:14.347Z,19.17
2023-05-19T15:11:42.464Z,18.97
2023-05-19T15:14:10.663Z,19.08
2023-05-19T15:16:38.717Z,18.87
2023-05-19T15:19:08.314Z,18.84
2023-05-19T15:21:40.710Z,18.70
2023-05-19T15:24:09.070Z,18.59
2023-05-19T15:26:37.946Z,18.82
2023-05-19T15:29:05.910Z,18.93
2023-05-19T15:31:35.877Z,18.51
2023-05-19T15:34:05.420Z,18.50
2023-05-19T15:39:18.314Z,18.82
2023-05-19T15:41:46.417Z,18.76
2023-05-19T15:44:14.536Z,18.29
2023-05-19T15:46:42.609Z,18.28
2023-05-19T15:49:12.683Z,18.35
2023-05-19T15:51:41.309Z,18.42
2023-05-19T15:54:09.312Z,18.64
2023-05-19T15:56:38.730Z,18.76
2023-05-19T15:59:06.727Z,19.03
2023-05-19T16:01:34.851Z,18.96
2023-05-19T16:04:03.916Z,18.94
2023-05-19T16:06:32.255Z,19.05
2023-05-19T16:09:00.258Z,18.51
2023-05-19T16:11:30.112Z,18.52
2023-05-19T16:13:59.425Z,18.46
2023-05-19T16:16:27.461Z,18.45
2023-05-19T16:18:55.554Z,18.52
2023-05-19T16:21:23.613Z,18.41
2023-05-19T16:23:51.519Z,18.33
2023-05-19T16:26:23.007Z,18.67
2023-05-19T16:28:50.916Z,18.75
2023-05-19T16:31:20.437Z,18.00
2023-05-19T16:33:48.515Z,17.67
2023-05-19T16:36:16.471Z,17.73
2023-05-19T16:38:44.563Z,17.96
2023-05-19T16:41:12.996Z,17.91
2023-05-19T16:43:41.004Z,17.90
2023-05-19T16:46:12.144Z,17.78
2023-05-19T16:48:41.811Z,17.53
2023-05-19T16:51:09.881Z,17.46
2023-05-19T16:53:41.229Z,17.58
2023-05-19T16:56:09.215Z,17.65
2023-05-19T16:58:37.321Z,17.20
2023-05-19T17:01:05.581Z,17.40
2023-05-19T17:03:36.453Z,17.48
2023-05-19T17:06:09.279Z,17.56
2023-05-19T17:08:37.311Z,17.48
2023-05-19T17:11:06.384Z,17.26
2023-05-19T17:13:36.509Z,17.00
2023-05-19T17:16:04.507Z,17.09
2023-05-19T17:18:32.647Z,17.36
2023-05-19T17:21:03.732Z,17.54
2023-05-19T17:23:33.638Z,17.68
2023-05-19T17:26:01.979Z,17.52
2023-05-19T17:28:30.097Z,17.43
2023-05-19T17:30:58.233Z,16.95
2023-05-19T17:33:26.456Z,16.63
2023-05-19T17:35:54.601Z,16.45
2023-05-19T17:38:22.802Z,16.23
2023-05-19T17:40:53.590Z,16.27
2023-05-19T17:43:21.536Z,16.09
2023-05-19T17:45:49.643Z,15.96
2023-05-19T17:48:20.057Z,15.94
2023-05-19T17:50:48.211Z,15.91
2023-05-19T17:53:17.065Z,15.74
2023-05-19T17:55:52.030Z,15.72
2023-05-19T17:58:22.060Z,15.58
2023-05-19T18:00:51.118Z,15.49
2023-05-19T18:03:19.748Z,15.42
2023-05-19T18:05:48.675Z,15.23
2023-05-19T18:08:17.014Z,14.80
2023-05-19T18:10:46.051Z,14.91
2023-05-19T18:13:15.262Z,14.84
2023-05-19T18:15:44.649Z,14.71
2023-05-19T18:18:12.747Z,14.64
2023-05-19T18:20:44.339Z,14.74
2023-05-19T18:23:12.370Z,14.93
2023-05-19T18:25:40.352Z,15.03
2023-05-19T18:28:08.852Z,14.87
2023-05-19T18:30:36.930Z,14.30
2023-05-19T18:33:07.321Z,14.20
2023-05-19T18:35:36.144Z,14.11
2023-05-19T18:38:04.135Z,14.07
2023-05-19T18:40:34.300Z,14.18
2023-05-19T18:43:02.353Z,14.03
2023-05-19T18:45:30.345Z,13.69
2023-05-19T18:47:58.306Z,13.10
2023-05-19T18:50:28.087Z,12.97
2023-05-19T18:52:56.024Z,12.62
2023-05-19T18:55:24.479Z,12.71
2023-05-19T18:57:54.312Z,12.50
2023-05-19T19:00:22.275Z,12.43
2023-05-19T19:02:50.289Z,12.26
2023-05-19T19:05:18.500Z,12.16
2023-05-19T19:07:50.267Z,12.08
2023-05-19T19:10:18.517Z,11.89
2023-05-19T19:12:46.794Z,11.72
2023-05-19T19:15:15.011Z,11.80
2023-05-19T19:17:43.670Z,11.35
2023-05-19T19:20:12.585Z,11.44
2023-05-19T19:22:40.833Z,11.26
2023-05-19T19:25:11.086Z,10.90
2023-05-19T19:27:39.350Z,10.76
2023-05-19T19:30:08.803Z,10.83
2023-05-19T19:32:38.903Z,10.82
2023-05-19T19:35:07.351Z,10.67
2023-05-19T19:37:35.417Z,10.49
2023-05-19T19:40:03.761Z,10.44
2023-05-19T19:42:33.214Z,10.21
2023-05-19T19:45:01.418Z,10.38
2023-05-19T19:47:29.624Z,10.25
2023-05-19T19:49:57.767Z,10.14
2023-05-19T19:52:26.053Z,10.22
2023-05-19T19:54:54.153Z,10.02
2023-05-19T19:57:24.476Z,9.29
2023-05-19T19:59:58.609Z,9.44
2023-05-19T20:02:29.077Z,9.21
2023-05-19T20:04:57.219Z,9.03
2023-05-19T20:07:25.379Z,8.93
2023-05-19T20:09:53.427Z,8.82
2023-05-19T20:12:22.455Z,8.75
2023-05-19T20:14:51.576Z,8.87
2023-05-19T20:17:21.081Z,8.63
2023-05-19T20:19:49.224Z,8.52
2023-05-19T20:22:17.383Z,8.42
2023-05-19T20:24:45.492Z,8.19
2023-05-19T20:31:35.129Z,8.13
2023-05-19T20:34:04.590Z,7.96
2023-05-19T20:36:32.864Z,7.90
2023-05-19T20:39:00.973Z,7.71
2023-05-19T20:41:29.133Z,7.50
2023-05-19T20:43:59.985Z,7.59
2023-05-19T20:46:28.468Z,7.37
2023-05-19T20:48:58.398Z,7.27
2023-05-19T20:51:27.811Z,7.44
2023-05-19T20:53:55.809Z,7.25
2023-05-19T20:56:23.925Z,6.99
2023-05-19T20:58:51.865Z,7.01
2023-05-19T21:01:20.127Z,7.13
2023-05-19T21:03:48.423Z,6.95
2023-05-19T21:06:16.434Z,6.69
2023-05-19T21:08:46.022Z,6.87
2023-05-19T21:11:14.382Z,6.77
2023-05-19T21:13:43.359Z,6.69
2023-05-19T21:16:11.281Z,6.68
2023-05-19T21:18:42.066Z,6.58
2023-05-19T21:21:10.052Z,6.49
2023-05-19T21:23:38.061Z,6.46
2023-05-19T21:26:07.808Z,6.45
2023-05-19T21:28:35.876Z,6.47
2023-05-19T21:31:05.489Z,6.35
2023-05-19T21:33:33.699Z,6.35
2023-05-19T21:36:01.804Z,6.25
2023-05-19T21:38:29.845Z,5.89
2023-05-19T21:40:58.112Z,6.43
2023-05-19T21:43:27.912Z,6.04
2023-05-19T21:45:55.814Z,5.97
2023-05-19T21:48:23.974Z,5.95
2023-05-19T21:50:57.844Z,5.80
2023-05-19T21:53:26.203Z,5.82
2023-05-19T21:55:54.228Z,5.55
2023-05-19T21:58:22.807Z,5.63
2023-05-19T22:00:54.555Z,5.57
2023-05-19T22:03:22.929Z,5.47
2023-05-19T22:05:51.799Z,5.51
2023-05-19T22:08:21.145Z,5.39
2023-05-19T22:10:50.876Z,5.32
2023-05-19T22:13:19.075Z,5.30
2023-05-19T22:15:47.448Z,5.25
2023-05-19T22:18:16.909Z,5.28
2023-05-19T22:20:44.943Z,5.36
2023-05-19T22:23:12.998Z,5.19
2023-05-19T22:25:41.048Z,5.21
2023-05-19T22:28:09.167Z,5.29
2023-05-19T22:30:42.942Z,5.15
2023-05-19T22:33:11.411Z,5.07
2023-05-19T22:35:40.916Z,5.02
2023-05-19T22:38:10.478Z,4.97
2023-05-19T22:40:38.979Z,5.07
2023-05-19T22:43:07.151Z,4.95
2023-05-19T22:45:38.698Z,4.82
2023-05-19T22:48:07.549Z,4.79
2023-05-19T22:50:35.579Z,4.80
2023-05-19T22:53:05.145Z,4.70
2023-05-19T22:55:33.351Z,4.64
2023-05-19T22:58:01.495Z,4.61
2023-05-19T23:00:29.837Z,4.69
2023-05-19T23:02:58.444Z,4.77
2023-05-19T23:05:26.694Z,4.76
2023-05-19T23:07:55.198Z,4.72
2023-05-19T23:10:24.684Z,4.57
2023-05-19T23:12:53.340Z,4.28
2023-05-19T23:15:21.745Z,4.34
2023-05-19T23:17:49.824Z,4.35
2023-05-19T23:20:17.965Z,4.26
2023-05-19T23:22:46.076Z,4.27
2023-05-19T23:25:14.026Z,4.22
2023-05-19T23:27:45.574Z,4.26
2023-05-19T23:30:13.901Z,4.35
2023-05-19T23:32:42.025Z,4.44
2023-05-19T23:35:11.789Z,4.27
2023-05-19T23:37:39.997Z,4.13
2023-05-19T23:40:09.807Z,4.10
2023-05-19T23:42:38.074Z,4.07
2023-05-19T23:45:11.418Z,4.08
2023-05-19T23:47:39.481Z,3.96
2023-05-19T23:50:08.125Z,3.92
2023-05-19T23:52:36.251Z,3.89
2023-05-19T23:55:04.427Z,3.56
2023-05-19T23:57:32.647Z,3.82
